Latest Weather Observations for Padthaway

IDS60801

Issued at 11:35 pm CST Monday 28 July 2014 (issued every 30 minutes, with the page automatically refreshed every 10 minutes)

About weather observations | Map of weather stations | Latest weather observations for SA | Other Formats
Station Details ID: 026100 Name: PADTHAWAY SOUTH Lat: -36.65 Lon: 140.52 Height: 37.0 m
Data from the previous 72 hours. | See also: Recent months at Padthaway
Date/Time
CST
Temp
°C
App
Temp
°C
Dew
Point
Rel
Hum
%
Delta-T
°C
Wind Press
QNH
hPa
Press
MSL
hPa
Rain
since 9 am
mm
Dir
 
Spd
km/h
Gust
km/h
Spd
kts
Gust
kts
28/11:30pm 11.6 5.8 8.1 79 1.7 NNW 28 39 15 21 - - 0.0
28/11:00pm 11.7 6.4 8.4 80 1.6 NNW 26 39 14 21 - - 0.0
28/10:30pm 12.0 6.8 8.7 80 1.6 NNW 26 35 14 19 - - 0.0
28/10:00pm 12.4 7.3 9.1 80 1.7 NNW 26 37 14 20 - - 0.0
28/09:30pm 12.0 6.9 9.2 83 1.4 NNW 26 35 14 19 - - 0.0
28/09:00pm 11.7 6.9 8.9 83 1.4 NNW 24 35 13 19 - - 0.0
28/08:30pm 11.6 7.2 8.8 83 1.4 NNW 22 32 12 17 - - 0.0
28/08:00pm 11.9 7.1 8.7 81 1.6 NNW 24 32 13 17 - - 0.0
28/07:30pm 11.8 7.6 8.3 79 1.7 NNW 20 30 11 16 - - 0.0
28/07:00pm 11.9 7.8 8.0 77 1.9 NNW 19 24 10 13 - - 0.0
28/06:30pm 11.7 8.0 8.0 78 1.8 NNW 17 20 9 11 - - 0.0
28/06:00pm 12.0 8.7 8.1 77 1.9 NNW 15 19 8 10 - - 0.0
28/05:30pm 12.8 9.1 8.1 73 2.3 NNW 17 22 9 12 - - 0.0
28/05:00pm 13.9 9.9 8.3 69 2.8 NW 19 24 10 13 - - 0.0
28/04:30pm 14.8 10.3 8.5 66 3.2 NW 22 32 12 17 - - 0.0
28/04:00pm 15.5 10.3 8.7 64 3.5 NW 26 35 14 19 - - 0.0
28/03:30pm 15.8 10.6 9.0 64 3.5 WNW 26 35 14 19 - - 0.0
28/03:00pm 16.1 10.7 9.5 65 3.4 NW 28 35 15 19 - - 0.0
28/02:30pm 15.8 9.9 9.2 65 3.4 WNW 30 41 16 22 - - 0.0
28/02:00pm 15.9 9.7 9.3 65 3.4 WNW 32 43 17 23 - - 0.0
28/01:30pm 16.2 10.0 9.4 64 3.5 WNW 32 43 17 23 - - 0.0
28/01:00pm 16.5 9.7 9.4 63 3.7 NW 35 50 19 27 - - 0.0
28/12:30pm 16.4 10.1 9.8 65 3.5 NW 33 41 18 22 - - 0.0
28/12:00pm 16.1 10.5 10.0 67 3.2 NW 30 39 16 21 - - 0.0
28/11:30am 15.7 10.7 10.9 73 2.6 NW 28 41 15 22 - - 0.0
28/11:00am 15.1 10.0 10.5 74 2.4 NW 28 39 15 21 - - 0.0
28/10:30am 13.9 9.1 10.3 79 1.9 NW 26 33 14 18 - - 0.0
28/10:00am 14.3 10.3 10.5 78 2.0 NNW 22 32 12 17 - - 0.0
28/09:30am 13.1 8.5 9.7 80 1.7 NNW 24 33 13 18 - - 0.0
28/09:00am 12.3 7.9 9.1 81 1.6 NNW 22 30 12 16 - - 0.0
28/08:30am 11.7 7.5 8.4 80 1.6 NNW 20 28 11 15 - - 0.0
28/08:00am 10.7 6.5 7.4 80 1.6 NNW 19 24 10 13 - - 0.0
28/07:30am 10.1 6.1 6.8 80 1.6 NNW 17 24 9 13 - - 0.0
28/07:00am 9.7 5.5 5.9 77 1.7 NW 17 22 9 12 - - 0.0
28/06:30am 9.3 5.1 5.9 79 1.6 NNW 17 22 9 12 - - 0.0
28/06:00am 9.0 5.2 5.6 79 1.5 NNW 15 19 8 10 - - 0.0
28/05:30am 9.2 5.3 5.4 77 1.7 NNW 15 19 8 10 - - 0.0
28/05:00am 9.6 5.0 5.4 75 1.9 NNW 19 24 10 13 - - 0.0
28/04:30am 9.2 5.3 5.4 77 1.7 NNW 15 19 8 10 - - 0.0
28/04:00am 8.8 4.9 5.2 78 1.6 NNW 15 19 8 10 - - 0.0
28/03:30am 9.1 5.2 5.3 77 1.7 NNW 15 20 8 11 - - 0.0
28/03:00am 9.9 5.6 5.3 73 2.1 NNW 17 24 9 13 - - 0.0
28/02:30am 10.1 5.4 5.3 72 2.2 NNW 19 24 10 13 - - 0.0
28/02:00am 10.1 5.9 5.5 73 2.1 NNW 17 24 9 13 - - 0.0
28/01:30am 10.4 5.8 5.6 72 2.2 NNW 19 24 10 13 - - 0.0
28/01:00am 11.6 7.0 5.5 66 2.8 NNW 19 26 10 14 - - 0.0
28/12:30am 12.3 7.6 5.2 62 3.3 NNW 19 24 10 13 - - 0.0
28/12:00am 12.5 7.7 5.4 62 3.3 NNW 20 30 11 16 - - 0.0
 
Date/Time
CST
Temp
°C
App
Temp
°C
Dew
Point
Rel
Hum
%
Delta-T
°C
Wind Press
QNH
hPa
Press
MSL
hPa
Rain
since 9 am
mm
Dir
 
Spd
km/h
Gust
km/h
Spd
kts
Gust
kts
27/11:30pm 12.8 7.6 5.5 61 3.4 N 22 32 12 17 - - 0.0
27/11:00pm 12.8 7.6 5.7 62 3.3 NNW 22 32 12 17 - - 0.0
27/10:30pm 12.7 8.1 6.3 65 3.0 N 20 26 11 14 - - 0.0
27/10:00pm 12.9 8.4 6.3 64 3.1 N 19 26 10 14 - - 0.0
27/09:30pm 11.9 7.9 6.6 70 2.5 N 17 22 9 12 - - 0.0
27/09:00pm 11.4 7.8 6.9 74 2.1 N 15 17 8 9 - - 0.0
27/08:30pm 11.7 7.8 7.0 73 2.3 N 17 22 9 12 - - 0.0
27/08:00pm 12.7 8.3 7.2 69 2.7 N 20 26 11 14 - - 0.0
27/07:30pm 12.3 8.1 7.4 72 2.4 N 19 24 10 13 - - 0.0
27/07:00pm 12.3 8.1 7.4 72 2.4 N 19 22 10 12 - - 0.0
27/06:30pm 12.5 8.8 7.8 73 2.3 N 17 22 9 12 - - 0.0
27/06:00pm 12.7 9.0 7.8 72 2.4 N 17 22 9 12 - - 0.0
27/05:30pm 13.1 9.4 8.0 71 2.5 N 17 20 9 11 - - 0.0
27/05:00pm 14.1 10.9 8.3 68 2.9 N 15 20 8 11 - - 0.0
27/04:30pm 14.5 10.5 8.2 66 3.2 NNW 19 24 10 13 - - 0.0
27/04:00pm 14.9 10.8 7.9 63 3.5 N 19 28 10 15 - - 0.0
27/03:30pm 15.2 11.0 8.2 63 3.5 NNW 20 28 11 15 - - 0.0
27/03:00pm 15.2 10.2 8.2 63 3.5 NNW 24 39 13 21 - - 0.0
27/02:30pm 15.9 11.5 8.9 63 3.6 NNW 22 33 12 18 - - 0.0
27/02:00pm 15.3 10.4 8.5 64 3.4 N 24 33 13 18 - - 0.0
27/01:30pm 15.0 9.6 8.0 63 3.5 N 26 35 14 19 - - 0.0
27/01:00pm 14.8 9.0 8.1 64 3.4 NNW 28 37 15 20 - - 0.0
27/12:30pm 14.9 9.0 7.7 62 3.6 NNW 28 35 15 19 - - 0.0
27/12:00pm 15.2 10.4 8.7 65 3.3 NNW 24 35 13 19 - - 0.0
27/11:30am 13.8 9.3 8.4 70 2.7 N 22 33 12 18 - - 0.0
27/11:00am 13.0 8.0 7.9 71 2.5 N 24 33 13 18 - - 0.0
27/10:30am 12.5 7.3 7.4 71 2.5 N 24 33 13 18 - - 0.0
27/10:00am 12.3 7.2 7.6 73 2.3 N 24 32 13 17 - - 0.0
27/09:30am 10.9 6.0 6.8 76 1.9 N 22 30 12 16 - - 0.0
27/09:00am 10.1 4.3 6.1 76 1.9 N 26 33 14 18 - - 0.4
27/08:30am 10.1 4.7 6.4 78 1.7 N 24 32 13 17 - - 0.4
27/08:00am 9.1 5.0 6.2 82 1.3 N 17 35 9 19 - - 0.4
27/07:30am 8.7 5.0 6.2 84 1.1 N 15 22 8 12 - - 0.4
27/07:00am 8.8 5.2 6.6 86 1.0 N 15 19 8 10 - - 0.2
27/06:30am 8.5 4.4 6.3 86 1.0 N 17 22 9 12 - - 0.2
27/06:00am 7.9 4.6 6.2 89 0.8 N 13 19 7 10 - - 0.2
27/05:30am 7.5 4.2 6.3 92 0.5 N 13 17 7 9 - - 0.2
27/05:00am 7.2 3.8 6.1 93 0.5 N 13 17 7 9 - - 0.2
27/04:30am 7.4 4.2 6.7 95 0.3 N 13 17 7 9 - - 0.2
27/04:00am 7.0 3.7 6.4 96 0.3 N 13 15 7 8 - - 0.2
27/03:30am 7.0 4.1 6.4 96 0.3 N 11 15 6 8 - - 0.2
27/03:00am 6.8 3.8 6.2 96 0.3 N 11 13 6 7 - - 0.2
27/02:30am 7.0 4.4 6.3 95 0.3 N 9 13 5 7 - - 0.2
27/02:00am 7.5 4.6 6.6 94 0.4 N 11 13 6 7 - - 0.2
27/01:30am 8.2 5.1 7.1 93 0.5 N 13 15 7 8 - - 0.2
27/01:00am 8.3 5.2 7.4 94 0.4 N 13 15 7 8 - - 0.2
27/12:30am 8.1 5.4 7.2 94 0.4 N 11 13 6 7 - - 0.2
27/12:00am 8.5 5.5 7.6 94 0.4 N 13 13 7 7 - - 0.2
 
Date/Time
CST
Temp
°C
App
Temp
°C
Dew
Point
Rel
Hum
%
Delta-T
°C
Wind Press
QNH
hPa
Press
MSL
hPa
Rain
since 9 am
mm
Dir
 
Spd
km/h
Gust
km/h
Spd
kts
Gust
kts
26/11:30pm 8.5 5.9 7.7 95 0.4 N 11 13 6 7 - - 0.2
26/11:00pm 8.6 5.7 8.0 96 0.3 N 13 15 7 8 - - 0.2
26/10:30pm 8.5 6.0 8.1 97 0.2 N 11 13 6 7 - - 0.2
26/10:00pm 8.2 6.0 7.8 97 0.2 N 9 11 5 6 - - 0.2
26/09:30pm 8.2 5.6 7.8 97 0.2 N 11 13 6 7 - - 0.2
26/09:00pm 6.8 3.8 5.9 94 0.4 N 11 13 6 7 - - 0.2
26/08:30pm 7.6 4.7 6.7 94 0.4 N 11 11 6 6 - - 0.2
26/08:00pm 8.3 6.0 7.4 94 0.4 N 9 11 5 6 - - 0.2
26/07:30pm 9.1 6.9 8.0 93 0.5 N 9 13 5 7 - - 0.2
26/07:00pm 9.5 7.4 8.1 91 0.7 N 9 11 5 6 - - 0.2
26/06:30pm 10.6 8.6 8.7 88 0.9 WNW 9 11 5 6 - - 0.2
26/06:00pm 11.4 9.1 9.1 86 1.1 WNW 11 15 6 8 - - 0.2
26/05:30pm 12.2 10.4 9.4 83 1.4 WNW 9 11 5 6 - - 0.2
26/05:00pm 13.7 11.6 9.9 78 2.0 W 11 17 6 9 - - 0.2
26/04:30pm 13.3 10.7 9.5 78 1.9 W 13 19 7 10 - - 0.2
26/04:00pm 15.8 12.9 9.7 67 3.2 W 15 19 8 10 - - 0.2
26/03:30pm 15.9 13.0 8.2 60 3.9 W 13 19 7 10 - - 0.2
26/03:00pm 16.0 13.0 9.2 64 3.5 W 15 22 8 12 - - 0.0
26/02:30pm 16.1 13.2 9.5 65 3.4 W 15 20 8 11 - - 0.0
26/02:00pm 16.1 13.1 9.1 63 3.6 W 15 22 8 12 - - 0.0
26/01:30pm 14.4 11.8 9.4 72 2.6 W 13 19 7 10 - - 0.0
26/01:00pm 15.2 12.8 10.0 71 2.7 W 13 19 7 10 - - 0.0
26/12:30pm 14.5 12.2 9.1 70 2.8 W 11 17 6 9 - - 0.0
26/12:00pm 15.5 12.6 9.6 68 3.1 W 15 20 8 11 - - 0.0
26/11:30am 13.9 11.4 9.7 76 2.2 W 13 19 7 10 - - 0.0
26/11:00am 14.5 12.1 10.1 75 2.3 W 13 17 7 9 - - 0.0
26/10:30am 13.0 11.7 9.3 78 1.9 WNW 6 11 3 6 - - 0.0
26/10:00am 11.8 10.4 9.7 87 1.1 W 7 9 4 5 - - 0.0
26/09:30am 11.0 9.5 10.4 96 0.3 NW 9 13 5 7 - - 0.0
26/09:00am 9.8 8.1 9.7 99 0.1 NW 9 11 5 6 - - 0.6
26/08:30am 9.0 7.4 8.9 99 0.0 NNW 7 9 4 5 - - 0.6
26/08:00am 7.1 5.1 7.0 99 0.0 NNW 7 9 4 5 - - 0.6
26/07:30am 6.1 3.9 6.0 99 0.0 NNW 7 9 4 5 - - 0.6
26/07:00am 6.1 3.5 6.0 99 0.0 NNW 9 11 5 6 - - 0.6
26/06:30am 5.8 3.1 5.7 99 0.0 N 9 11 5 6 - - 0.6
26/06:00am 6.8 4.7 6.7 99 0.0 N 7 9 4 5 - - 0.6
26/05:30am 6.7 4.6 6.6 99 0.0 NNW 7 7 4 4 - - 0.6
26/05:00am 6.1 3.5 6.0 99 0.0 NNW 9 11 5 6 - - 0.6
26/04:30am 5.7 4.7 5.6 99 0.0 CALM 0 0 0 0 - - 0.6
26/04:00am 6.5 5.7 6.4 99 0.0 CALM 0 0 0 0 - - 0.6
26/03:30am 7.3 4.9 7.2 99 0.0 NNW 9 9 5 5 - - 0.6
26/03:00am 7.2 4.8 7.1 99 0.0 NNW 9 11 5 6 - - 0.6
26/02:30am 6.9 4.8 6.8 99 0.0 NNW 7 9 4 5 - - 0.6
26/02:00am 7.6 5.3 7.5 99 0.0 NW 9 11 5 6 - - 0.4
26/01:30am 7.9 6.1 7.8 99 0.0 NNW 7 9 4 5 - - 0.4
26/01:00am 8.0 5.0 7.7 98 0.1 N 13 13 7 7 - - 0.4
26/12:30am 8.1 6.3 7.8 98 0.1 NNW 7 9 4 5 - - 0.4
26/12:00am 8.7 6.6 8.3 97 0.2 NNW 9 9 5 5 - - 0.4

Other Formats:

Comma delimited format used in spreadsheet applications
http://www.bom.gov.au/fwo/IDS60801/IDS60801.95823.axf

JavaScript Object Notation format (JSON) in row-major order
http://www.bom.gov.au/fwo/IDS60801/IDS60801.95823.json